Terminal Aerodrome Forecast
Issued by NWS Paducah, KY

Home | Current Version | Previous Version | Text Only | Print | Product List | Glossary On
Versions: 1 2 3 4 5 6 7 8 9 10 11 12 13
726
FTUS43 KPAH 181140
TAFPAH
TAF
KPAH 181140Z 1812/1912 19009KT P6SM SKC
     FM181400 23015G24KT P6SM BKN035
     FM181900 28019G29KT P6SM FEW040
     FM190000 30017G27KT P6SM SCT050
     FM190600 30012G19KT P6SM SCT035=

USA.gov is the U.S. government's official web portal to all federal, state and local government web resources and services.